Hilversum Aerodrome

EHHV · Nordholland, Niederlande

5. Oktober 2022

Uhrzeit Code Wetter Temp. Sichtweite Wolkendecke Wind METAR/SPECI
20:55
M
14 °C 7 km 2.100 ft 260° 260° 20 kt METAR EHAM 051855Z 26020KT 7000 -RADZ FEW007 BKN021 14/13 Q1014 BECMG 9999 NSW
20:25
M
16 °C 7 km 2.000 ft 210° 210° 18 kt METAR EHAM 051825Z 21018KT 7000 -RADZ FEW016 BKN020 16/13 Q1012 TEMPO 4000 BKN018 BECMG FM1845 26016KT 9999 NSW
19:55
M
17 °C 10 km+ 2.400 ft 210° 210° 21 - 33 kt METAR EHAM 051755Z 21021G33KT 180V240 9999 -DZ FEW019 BKN024 17/13 Q1012 TEMPO 7000 BKN018 BECMG FM1845 26016KT
19:25
M
17 °C 10 km+ 2.700 ft 200° 200° 19 kt METAR EHAM 051725Z 20019KT 9999 BKN027 17/12 Q1012 BECMG BKN018
18:55
M
17 °C 10 km+ 2.700 ft 210° 210° 20 kt METAR EHAM 051655Z 21020KT 9999 OVC027 17/12 Q1011 NOSIG
18:25
M
17 °C 10 km+ 2.600 ft 210° 210° 20 kt METAR EHAM 051625Z 21020KT 9999 OVC026 17/12 Q1011 NOSIG
17:55
V
17 °C 10 km+ 3.000 ft 210° 210° 21 kt METAR EHAM 051555Z 21021KT 9999 OVC030 17/12 Q1011 NOSIG
17:25
V
17 °C 10 km+ 4.000 ft 210° 210° 20 kt METAR EHAM 051525Z 21020KT 9999 FEW029 BKN040 17/12 Q1011 NOSIG
16:55
V
18 °C 10 km+ 4.300 ft 210° 210° 23 - 33 kt METAR EHAM 051455Z 21023G33KT 9999 FEW032 BKN043 18/12 Q1011 NOSIG
16:25
V
18 °C 10 km+ 3.600 ft 200° 200° 21 kt METAR EHAM 051425Z 20021KT 170V230 9999 FEW027 BKN036 18/12 Q1011 NOSIG
15:55
V
18 °C 10 km+ - 200° 200° 23 - 33 kt METAR EHAM 051355Z 20023G33KT 9999 FEW027 SCT036 18/12 Q1011 NOSIG
15:25
V
17 °C 10 km+ 3.300 ft 200° 200° 24 kt METAR EHAM 051325Z 20024KT 9999 SCT028 BKN033 17/12 Q1011 NOSIG
14:55
V
17 °C 10 km+ 3.000 ft 210° 210° 19 kt METAR EHAM 051255Z 21019KT 9999 FEW024 BKN030 17/12 Q1011 NOSIG
14:25
V
17 °C 10 km+ 3.000 ft 200° 200° 19 kt METAR EHAM 051225Z 20019KT 9999 FEW024 BKN030 17/12 Q1012 NOSIG
13:55
M
17 °C 10 km+ 2.600 ft 210° 210° 19 kt METAR EHAM 051155Z 21019KT 180V240 9999 BKN026 17/12 Q1012 NOSIG
13:25
M
16 °C 10 km+ 2.500 ft 210° 210° 20 kt METAR EHAM 051125Z 21020KT 9999 BKN025 16/12 Q1012 NOSIG
12:55
M
16 °C 10 km+ 2.500 ft 210° 210° 20 - 30 kt METAR EHAM 051055Z 21020G30KT 170V240 9999 BKN025 16/11 Q1012 NOSIG
12:25
M
16 °C 10 km+ 2.500 ft 210° 210° 21 kt METAR EHAM 051025Z 21021KT 9999 BKN025 16/11 Q1012 NOSIG
11:55
M
17 °C 10 km+ 2.500 ft 210° 210° 19 kt METAR EHAM 050955Z 21019KT 180V240 9999 BKN025 17/12 Q1012 NOSIG
11:25
M
16 °C 10 km+ 2.500 ft 200° 200° 17 kt METAR EHAM 050925Z 20017KT 9999 BKN025 16/12 Q1012 NOSIG
10:55
M
16 °C 10 km+ 2.500 ft 200° 200° 18 kt METAR EHAM 050855Z 20018KT 9999 BKN025 16/12 Q1013 NOSIG
10:25
M
16 °C 10 km+ 2.600 ft 200° 200° 16 kt METAR EHAM 050825Z 20016KT 9999 FEW016 BKN026 16/12 Q1013 NOSIG
09:55
M
16 °C 10 km+ 2.700 ft 200° 200° 16 kt METAR EHAM 050755Z 20016KT 9999 FEW016 BKN027 16/12 Q1013 NOSIG
09:25
M
16 °C 10 km+ 2.800 ft 200° 200° 14 kt METAR EHAM 050725Z 20014KT 9999 FEW016 BKN028 16/12 Q1013 NOSIG
08:55
M
16 °C 10 km+ 2.700 ft 200° 200° 14 kt METAR EHAM 050655Z 20014KT 9999 BKN027 16/11 Q1013 NOSIG
08:25
M
15 °C 10 km+ 2.800 ft 200° 200° 13 kt METAR EHAM 050625Z 20013KT 170V230 9999 BKN028 15/11 Q1013 NOSIG
07:55
M
15 °C 10 km+ 2.800 ft 200° 200° 13 kt METAR EHAM 050555Z 20013KT 9999 BKN028 15/11 Q1013 NOSIG
07:25
M
15 °C 10 km+ 2.900 ft 200° 200° 14 kt METAR EHAM 050525Z 20014KT 9999 BKN029 15/11 Q1013 NOSIG
06:55
M
15 °C 10 km+ 2.900 ft 200° 200° 12 kt METAR EHAM 050455Z 20012KT 9999 BKN029 15/12 Q1013 NOSIG
06:25
M
15 °C 10 km+ 2.600 ft 190° 190° 12 kt METAR EHAM 050425Z 19012KT 9999 BKN026 15/12 Q1014 NOSIG
05:55
V
15 °C 10 km+ 3.000 ft 190° 190° 12 kt METAR EHAM 050355Z 19012KT 9999 BKN030 15/12 Q1014 NOSIG
05:25
M
15 °C 10 km+ 2.700 ft 200° 200° 12 kt METAR EHAM 050325Z 20012KT 9999 BKN027 15/12 Q1014 NOSIG
04:55
V
16 °C 10 km+ 3.100 ft 200° 200° 14 kt METAR EHAM 050255Z 20014KT 9999 BKN031 16/12 Q1014 NOSIG
04:25
V
16 °C 10 km+ 3.100 ft 200° 200° 11 kt METAR EHAM 050225Z 20011KT 9999 BKN031 16/11 Q1014 NOSIG
03:55
V
16 °C 10 km+ 3.100 ft 200° 200° 14 kt METAR EHAM 050155Z 20014KT 150V230 9999 BKN031 16/11 Q1014 NOSIG
03:25
V
16 °C 10 km+ 3.100 ft 210° 210° 13 kt METAR EHAM 050125Z 21013KT 9999 BKN031 16/11 Q1015 NOSIG
02:55
V
16 °C 10 km+ 3.000 ft 210° 210° 12 kt METAR EHAM 050055Z 21012KT 9999 FEW023 BKN030 16/12 Q1015 NOSIG
02:25
V
16 °C 10 km+ 3.200 ft 200° 200° 11 kt METAR EHAM 050025Z 20011KT 9999 FEW025 BKN032 16/12 Q1016 NOSIG
01:55
V
16 °C 10 km+ 3.700 ft 200° 200° 10 kt METAR EHAM 042355Z 20010KT 9999 FEW028 BKN037 16/12 Q1016 NOSIG
01:25
V
16 °C 10 km+ 3.400 ft 200° 200° 11 kt METAR EHAM 042325Z 20011KT 9999 SCT023 BKN034 16/12 Q1016 NOSIG
00:55
V
16 °C 10 km+ 3.400 ft 210° 210° 13 kt METAR EHAM 042255Z 21013KT 9999 SCT023 BKN034 16/12 Q1016 NOSIG
00:25
V
16 °C 10 km+ 3.700 ft 210° 210° 14 kt METAR EHAM 042225Z 21014KT 9999 BKN037 16/11 Q1016 NOSIG

4. Oktober 2022

Uhrzeit Code Wetter Temp. Sichtweite Wolkendecke Wind METAR/SPECI
23:55
V
16 °C 10 km+ 3.500 ft 200° 200° 14 kt METAR EHAM 042155Z 20014KT 9999 BKN035 16/12 Q1016 NOSIG
23:25
V
16 °C 10 km+ 3.500 ft 210° 210° 13 kt METAR EHAM 042125Z 21013KT 180V240 9999 BKN035 16/12 Q1017 NOSIG
22:55
V
17 °C 10 km+ 3.300 ft 210° 210° 15 kt METAR EHAM 042055Z 21015KT 9999 FEW024 BKN033 17/12 Q1017 NOSIG
22:25
V
17 °C 10 km+ 3.600 ft 210° 210° 13 kt METAR EHAM 042025Z 21013KT 9999 FEW029 BKN036 17/12 Q1016 NOSIG
21:55
V
17 °C 10 km+ 3.600 ft 210° 210° 13 kt METAR EHAM 041955Z 21013KT 180V240 9999 BKN036 17/13 Q1016 NOSIG
21:25
V
17 °C 10 km+ 3.600 ft 200° 200° 12 kt METAR EHAM 041925Z 20012KT 9999 BKN036 17/13 Q1016 NOSIG
20:55
V
17 °C 10 km+ 3.600 ft 210° 210° 11 kt METAR EHAM 041855Z 21011KT 9999 FEW032 BKN036 17/13 Q1017 NOSIG
20:25
M
17 °C 10 km+ 2.800 ft 210° 210° 12 kt METAR EHAM 041825Z 21012KT 9999 BKN028 17/13 Q1017 NOSIG
19:55
M
17 °C 10 km+ 2.600 ft 210° 210° 10 kt METAR EHAM 041755Z 21010KT 9999 BKN026 17/13 Q1017 NOSIG
19:25
M
17 °C 10 km+ 2.600 ft 200° 200° 10 kt METAR EHAM 041725Z 20010KT 9999 BKN026 17/13 Q1017 NOSIG
18:55
V
17 °C 10 km+ 3.400 ft 200° 200° 9 kt METAR EHAM 041655Z 20009KT 9999 FEW029 BKN034 17/13 Q1017 NOSIG
18:25
V
17 °C 10 km+ 4.000 ft 200° 200° 11 kt METAR EHAM 041625Z 20011KT 9999 FEW026 BKN040 17/13 Q1017 NOSIG
17:55
V
17 °C 10 km+ 4.000 ft 200° 200° 10 kt METAR EHAM 041555Z 20010KT 9999 FEW024 BKN040 17/13 Q1017 NOSIG
17:25
V
17 °C 10 km+ - 200° 200° 12 kt METAR EHAM 041525Z 20012KT 9999 FEW027 SCT040 17/13 Q1017 NOSIG
16:55
V
17 °C 10 km+ - 200° 200° 14 kt METAR EHAM 041455Z 20014KT 9999 FEW025 17/12 Q1017 NOSIG
16:25
V
18 °C 10 km+ - 200° 200° 14 kt METAR EHAM 041425Z 20014KT 170V230 9999 FEW026 18/12 Q1017 NOSIG
15:55
V
18 °C 10 km+ - 190° 190° 14 kt METAR EHAM 041355Z 19014KT 160V220 CAVOK 18/11 Q1017 NOSIG
15:25
V
18 °C 10 km+ - 200° 200° 14 kt METAR EHAM 041325Z 20014KT CAVOK 18/11 Q1018 NOSIG
14:55
V
18 °C 10 km+ - 200° 200° 14 kt METAR EHAM 041255Z 20014KT CAVOK 18/11 Q1018 NOSIG
14:25
V
17 °C 10 km+ - 190° 190° 14 kt METAR EHAM 041225Z 19014KT 160V220 CAVOK 17/10 Q1018 NOSIG
13:55
V
16 °C 10 km+ - 190° 190° 13 kt METAR EHAM 041155Z 19013KT CAVOK 16/10 Q1019 NOSIG
13:25
V
17 °C 10 km+ - 200° 200° 14 kt METAR EHAM 041125Z 20014KT 9999 FEW019 17/10 Q1019 NOSIG
12:55
V
16 °C 10 km+ - 190° 190° 12 kt METAR EHAM 041055Z 19012KT 9999 FEW016 16/10 Q1019 NOSIG
12:25
V
16 °C 10 km+ - 200° 200° 11 kt METAR EHAM 041025Z 20011KT 170V230 9999 FEW014 16/11 Q1019 NOSIG
11:55
V
15 °C 10 km+ - 200° 200° 12 kt METAR EHAM 040955Z 20012KT 160V220 9999 FEW014 15/11 Q1019 NOSIG
11:25
V
14 °C 10 km+ - 200° 200° 12 kt METAR EHAM 040925Z 20012KT 9999 FEW012 14/11 Q1019 NOSIG
10:55
V
13 °C 10 km+ - 180° 180° 10 kt METAR EHAM 040855Z 18010KT 150V210 9999 FEW010 13/11 Q1019 NOSIG
10:25
V
12 °C 10 km+ - 180° 180° 9 kt METAR EHAM 040825Z 18009KT 9999 FEW008 12/10 Q1020 NOSIG
09:55
V
12 °C 10 km+ - 180° 180° 8 kt METAR EHAM 040755Z 18008KT CAVOK 12/10 Q1020 NOSIG
09:25
V
11 °C 10 km+ - 180° 180° 9 kt METAR EHAM 040725Z 18009KT CAVOK 11/10 Q1019 NOSIG
08:55
V
10 °C 9 km - 170° 170° 7 kt METAR EHAM 040655Z 17007KT 9000 NSC 10/09 Q1019 NOSIG
08:25
V
9 °C 9 km - 150° 150° 7 kt METAR EHAM 040625Z 15007KT 9000 NSC 09/09 Q1019 NOSIG
07:55
V
10 °C 9 km - 170° 170° 8 kt METAR EHAM 040555Z 17008KT 9000 NSC 10/09 Q1020 NOSIG
07:25
V
10 °C 9 km - 180° 180° 7 kt METAR EHAM 040525Z 18007KT 9000 NSC 10/09 Q1020 NOSIG
06:55
V
10 °C 10 km+ - 180° 180° 6 kt METAR EHAM 040455Z 18006KT CAVOK 10/09 Q1020 NOSIG
06:25
V
10 °C 10 km+ - 180° 180° 6 kt METAR EHAM 040425Z 18006KT CAVOK 10/09 Q1020 NOSIG
05:55
V
10 °C 10 km+ - 170° 170° 7 kt METAR EHAM 040355Z 17007KT CAVOK 10/09 Q1020 NOSIG
05:25
V
11 °C 10 km+ - 190° 190° 8 kt METAR EHAM 040325Z 19008KT CAVOK 11/10 Q1020 NOSIG
04:55
V
11 °C 10 km+ - 180° 180° 6 kt METAR EHAM 040255Z 18006KT CAVOK 11/10 Q1021 NOSIG
04:25
V
11 °C 10 km+ - 170° 170° 7 kt METAR EHAM 040225Z 17007KT CAVOK 11/10 Q1021 NOSIG
03:55
V
12 °C 10 km+ - 190° 190° 7 kt METAR EHAM 040155Z 19007KT CAVOK 12/10 Q1022 NOSIG
03:25
V
12 °C 10 km+ - 190° 190° 6 kt METAR EHAM 040125Z 19006KT CAVOK 12/11 Q1022 NOSIG
02:55
V
12 °C 10 km+ - 180° 180° 4 kt METAR EHAM 040055Z 18004KT CAVOK 12/11 Q1022 NOSIG
02:25
V
12 °C 10 km+ - 170° 170° 3 kt METAR EHAM 040025Z 17003KT CAVOK 12/11 Q1022 NOSIG
01:55
V
12 °C 10 km+ - 190° 190° 4 kt METAR EHAM 032355Z 19004KT CAVOK 12/11 Q1023 NOSIG
01:25
V
12 °C 10 km+ - 190° 190° 3 kt METAR EHAM 032325Z 19003KT CAVOK 12/11 Q1023 NOSIG
00:55
V
12 °C 10 km+ - 190° 190° 4 kt METAR EHAM 032255Z 19004KT 9999 FEW032 12/11 Q1023 NOSIG
00:25
V
12 °C 10 km+ - 180° 180° 5 kt METAR EHAM 032225Z 18005KT 9999 FEW032 12/11 Q1023 NOSIG

3. Oktober 2022

Uhrzeit Code Wetter Temp. Sichtweite Wolkendecke Wind METAR/SPECI
23:55
V
12 °C 10 km+ 3.500 ft 170° 170° 3 kt METAR EHAM 032155Z 17003KT 150V210 9999 BKN035 12/11 Q1024 NOSIG
23:25
V
12 °C 10 km+ - 170° 170° 3 kt METAR EHAM 032125Z 17003KT 9999 SCT033 12/11 Q1024 NOSIG
22:55
V
12 °C 10 km+ - 150° 150° 5 kt METAR EHAM 032055Z 15005KT 9999 SCT032 12/11 Q1024 NOSIG
22:25
V
12 °C 10 km+ - 160° 160° 4 kt METAR EHAM 032025Z 16004KT 9999 FEW032 12/11 Q1024 NOSIG
21:55
V
13 °C 10 km+ - 170° 170° 4 kt METAR EHAM 031955Z 17004KT CAVOK 13/11 Q1024 NOSIG
21:25
V
13 °C 10 km+ - 170° 170° 4 kt METAR EHAM 031925Z 17004KT CAVOK 13/11 Q1024 NOSIG
20:55
V
13 °C 10 km+ - 170° 170° 4 kt METAR EHAM 031855Z 17004KT CAVOK 13/11 Q1024 NOSIG
20:25
V
12 °C 10 km+ - 160° 160° 4 kt METAR EHAM 031825Z 16004KT CAVOK 12/10 Q1024 NOSIG
19:55
V
13 °C 10 km+ - 190° 190° 4 kt METAR EHAM 031755Z 19004KT CAVOK 13/11 Q1025 NOSIG
19:25
V
14 °C 10 km+ - 230° 230° 6 kt METAR EHAM 031725Z 23006KT 200V270 9999 FEW040 14/11 Q1025 NOSIG
18:55
V
15 °C 10 km+ - 220° 220° 5 kt METAR EHAM 031655Z 22005KT 9999 FEW024 15/11 Q1025 NOSIG
18:25
V
16 °C 10 km+ - 240° 240° 6 kt METAR EHAM 031625Z 24006KT 9999 FEW024 SCT040 16/11 Q1025 NOSIG
17:55
V
16 °C 10 km+ - 240° 240° 6 kt METAR EHAM 031555Z 24006KT 200V270 9999 FEW030 16/10 Q1025 NOSIG
17:25
V
16 °C 10 km+ - 250° 250° 7 kt METAR EHAM 031525Z 25007KT 220V280 9999 FEW030 16/10 Q1025 NOSIG
16:55
V
17 °C 10 km+ - 250° 250° 7 kt METAR EHAM 031455Z 25007KT 210V290 9999 FEW024 17/11 Q1026 NOSIG
Ältere Daten

Wir und Dritte verfolgen dein Internetverhalten auf unserer Website mit Cookies. Wenn du fortfährst, gehen wir davon aus, dass du mit unserer Cookie-Richtlinie einverstanden bist. Mehr erfahren